sensor_id;sensor_type;location;lat;lon;timestamp;temperature;humidity
31074;DHT22;17730;53.552;9.940;2022-08-02T00:00:51;13.10;99.90
31074;DHT22;17730;53.552;9.940;2022-08-02T00:03:16;13.10;99.90
31074;DHT22;17730;53.552;9.940;2022-08-02T00:05:42;13.10;99.90
31074;DHT22;17730;53.552;9.940;2022-08-02T00:08:08;13.10;99.90
31074;DHT22;17730;53.552;9.940;2022-08-02T00:10:33;13.10;99.90
31074;DHT22;17730;53.552;9.940;2022-08-02T00:12:59;13.10;99.90
31074;DHT22;17730;53.552;9.940;2022-08-02T00:15:25;13.10;99.90
31074;DHT22;17730;53.552;9.940;2022-08-02T00:17:50;13.00;99.90
31074;DHT22;17730;53.552;9.940;2022-08-02T00:20:16;13.00;99.90
31074;DHT22;17730;53.552;9.940;2022-08-02T00:22:42;13.00;99.90
31074;DHT22;17730;53.552;9.940;2022-08-02T00:25:08;13.00;99.90
31074;DHT22;17730;53.552;9.940;2022-08-02T00:27:33;13.00;99.90
31074;DHT22;17730;53.552;9.940;2022-08-02T00:29:59;13.00;99.90
31074;DHT22;17730;53.552;9.940;2022-08-02T00:32:24;13.00;99.90
31074;DHT22;17730;53.552;9.940;2022-08-02T00:34:50;12.90;99.90
31074;DHT22;17730;53.552;9.940;2022-08-02T00:37:16;12.80;99.90
31074;DHT22;17730;53.552;9.940;2022-08-02T00:39:41;12.80;99.90
31074;DHT22;17730;53.552;9.940;2022-08-02T00:42:07;12.70;99.90
31074;DHT22;17730;53.552;9.940;2022-08-02T00:44:33;12.80;99.90
31074;DHT22;17730;53.552;9.940;2022-08-02T00:47:00;12.70;99.90
31074;DHT22;17730;53.552;9.940;2022-08-02T00:49:26;12.70;99.90
31074;DHT22;17730;53.552;9.940;2022-08-02T00:51:51;12.70;99.90
31074;DHT22;17730;53.552;9.940;2022-08-02T00:54:17;12.70;99.90
31074;DHT22;17730;53.552;9.940;2022-08-02T00:56:43;12.60;99.90
31074;DHT22;17730;53.552;9.940;2022-08-02T00:59:08;12.60;99.90
31074;DHT22;17730;53.552;9.940;2022-08-02T01:01:34;12.60;99.90
31074;DHT22;17730;53.552;9.940;2022-08-02T01:04:09;12.50;99.90
31074;DHT22;17730;53.552;9.940;2022-08-02T01:06:36;12.50;99.90
31074;DHT22;17730;53.552;9.940;2022-08-02T01:09:03;12.50;99.90
31074;DHT22;17730;53.552;9.940;2022-08-02T01:11:29;12.50;99.90
31074;DHT22;17730;53.552;9.940;2022-08-02T01:14:05;12.50;99.90
31074;DHT22;17730;53.552;9.940;2022-08-02T01:16:35;12.50;99.90
31074;DHT22;17730;53.552;9.940;2022-08-02T01:24:57;12.40;99.90
31074;DHT22;17730;53.552;9.940;2022-08-02T01:28:01;12.30;99.90
31074;DHT22;17730;53.552;9.940;2022-08-02T01:30:29;12.30;99.90
31074;DHT22;17730;53.552;9.940;2022-08-02T01:32:59;12.30;99.90
31074;DHT22;17730;53.552;9.940;2022-08-02T01:35:37;12.20;99.90
31074;DHT22;17730;53.552;9.940;2022-08-02T01:38:10;12.20;99.90
31074;DHT22;17730;53.552;9.940;2022-08-02T01:40:41;12.20;99.90
31074;DHT22;17730;53.552;9.940;2022-08-02T01:43:09;12.20;99.90
31074;DHT22;17730;53.552;9.940;2022-08-02T01:45:38;12.20;99.90
31074;DHT22;17730;53.552;9.940;2022-08-02T01:48:05;12.10;99.90
31074;DHT22;17730;53.552;9.940;2022-08-02T01:50:34;12.10;99.90
31074;DHT22;17730;53.552;9.940;2022-08-02T01:53:05;12.10;99.90
31074;DHT22;17730;53.552;9.940;2022-08-02T01:55:40;12.00;99.90
31074;DHT22;17730;53.552;9.940;2022-08-02T01:58:08;12.00;99.90
31074;DHT22;17730;53.552;9.940;2022-08-02T02:00:39;12.00;99.90
31074;DHT22;17730;53.552;9.940;2022-08-02T02:03:13;12.00;99.90
31074;DHT22;17730;53.552;9.940;2022-08-02T02:05:39;12.00;99.90
31074;DHT22;17730;53.552;9.940;2022-08-02T02:08:06;12.00;99.90
31074;DHT22;17730;53.552;9.940;2022-08-02T02:10:33;11.90;99.90
31074;DHT22;17730;53.552;9.940;2022-08-02T02:13:03;11.90;99.90
31074;DHT22;17730;53.552;9.940;2022-08-02T02:15:30;11.90;99.90
31074;DHT22;17730;53.552;9.940;2022-08-02T02:17:57;11.90;99.90
31074;DHT22;17730;53.552;9.940;2022-08-02T02:20:23;11.80;99.90
31074;DHT22;17730;53.552;9.940;2022-08-02T02:22:49;11.80;99.90
31074;DHT22;17730;53.552;9.940;2022-08-02T02:25:18;11.80;99.90
31074;DHT22;17730;53.552;9.940;2022-08-02T02:27:54;11.70;99.90
31074;DHT22;17730;53.552;9.940;2022-08-02T02:30:22;11.70;99.90
31074;DHT22;17730;53.552;9.940;2022-08-02T02:32:52;11.60;99.90
31074;DHT22;17730;53.552;9.940;2022-08-02T02:35:20;11.60;99.90
31074;DHT22;17730;53.552;9.940;2022-08-02T02:37:47;11.60;99.90
31074;DHT22;17730;53.552;9.940;2022-08-02T02:40:15;11.60;99.90
31074;DHT22;17730;53.552;9.940;2022-08-02T02:42:42;11.60;99.90
31074;DHT22;17730;53.552;9.940;2022-08-02T02:45:09;11.60;99.90
31074;DHT22;17730;53.552;9.940;2022-08-02T02:47:35;11.50;99.90
31074;DHT22;17730;53.552;9.940;2022-08-02T02:50:02;11.50;99.90
31074;DHT22;17730;53.552;9.940;2022-08-02T02:52:27;11.50;99.90
31074;DHT22;17730;53.552;9.940;2022-08-02T02:54:54;11.50;99.90
31074;DHT22;17730;53.552;9.940;2022-08-02T02:57:21;11.50;99.90
31074;DHT22;17730;53.552;9.940;2022-08-02T02:59:47;11.50;99.90
31074;DHT22;17730;53.552;9.940;2022-08-02T03:02:13;11.50;99.90
31074;DHT22;17730;53.552;9.940;2022-08-02T03:04:41;11.50;99.90
31074;DHT22;17730;53.552;9.940;2022-08-02T03:07:09;11.50;99.90
31074;DHT22;17730;53.552;9.940;2022-08-02T03:09:34;11.50;99.90
31074;DHT22;17730;53.552;9.940;2022-08-02T03:12:00;11.40;99.90
31074;DHT22;17730;53.552;9.940;2022-08-02T03:14:26;11.50;99.90
31074;DHT22;17730;53.552;9.940;2022-08-02T03:16:53;11.50;99.90
31074;DHT22;17730;53.552;9.940;2022-08-02T03:19:21;11.50;99.90
31074;DHT22;17730;53.552;9.940;2022-08-02T03:21:48;11.50;99.90
31074;DHT22;17730;53.552;9.940;2022-08-02T03:24:14;11.60;99.90
31074;DHT22;17730;53.552;9.940;2022-08-02T03:26:41;11.60;99.90
31074;DHT22;17730;53.552;9.940;2022-08-02T03:29:07;11.60;99.90
31074;DHT22;17730;53.552;9.940;2022-08-02T03:31:33;11.70;99.90
31074;DHT22;17730;53.552;9.940;2022-08-02T03:34:00;11.70;99.90
31074;DHT22;17730;53.552;9.940;2022-08-02T03:36:30;11.70;99.90
31074;DHT22;17730;53.552;9.940;2022-08-02T03:38:57;11.70;99.90
31074;DHT22;17730;53.552;9.940;2022-08-02T03:41:24;11.70;99.90
31074;DHT22;17730;53.552;9.940;2022-08-02T03:43:50;11.70;99.90
31074;DHT22;17730;53.552;9.940;2022-08-02T03:46:19;11.70;99.90
31074;DHT22;17730;53.552;9.940;2022-08-02T03:48:48;11.80;99.90
31074;DHT22;17730;53.552;9.940;2022-08-02T03:51:15;11.80;99.90
31074;DHT22;17730;53.552;9.940;2022-08-02T03:53:41;12.00;99.90
31074;DHT22;17730;53.552;9.940;2022-08-02T03:56:08;12.10;99.90
31074;DHT22;17730;53.552;9.940;2022-08-02T03:58:34;12.20;99.90
31074;DHT22;17730;53.552;9.940;2022-08-02T04:01:00;12.20;99.90
31074;DHT22;17730;53.552;9.940;2022-08-02T04:03:25;12.30;99.90
31074;DHT22;17730;53.552;9.940;2022-08-02T04:05:51;12.40;99.90
31074;DHT22;17730;53.552;9.940;2022-08-02T04:08:17;12.50;99.90
31074;DHT22;17730;53.552;9.940;2022-08-02T04:10:44;12.50;99.90
31074;DHT22;17730;53.552;9.940;2022-08-02T04:13:31;12.60;99.90
31074;DHT22;17730;53.552;9.940;2022-08-02T04:16:11;12.60;99.90
31074;DHT22;17730;53.552;9.940;2022-08-02T04:18:55;12.60;99.90
31074;DHT22;17730;53.552;9.940;2022-08-02T04:21:26;12.60;99.90
31074;DHT22;17730;53.552;9.940;2022-08-02T04:23:53;12.60;99.90
31074;DHT22;17730;53.552;9.940;2022-08-02T04:26:20;12.60;99.90
31074;DHT22;17730;53.552;9.940;2022-08-02T04:28:47;12.60;99.90
31074;DHT22;17730;53.552;9.940;2022-08-02T04:31:15;12.80;99.90
31074;DHT22;17730;53.552;9.940;2022-08-02T04:33:41;12.80;99.90
31074;DHT22;17730;53.552;9.940;2022-08-02T04:36:07;12.90;99.90
31074;DHT22;17730;53.552;9.940;2022-08-02T04:38:33;12.80;99.90
31074;DHT22;17730;53.552;9.940;2022-08-02T04:41:00;12.80;99.90
31074;DHT22;17730;53.552;9.940;2022-08-02T04:43:27;12.80;99.90
31074;DHT22;17730;53.552;9.940;2022-08-02T04:45:53;12.80;99.90
31074;DHT22;17730;53.552;9.940;2022-08-02T04:48:20;12.90;99.90
31074;DHT22;17730;53.552;9.940;2022-08-02T04:50:46;13.00;99.90
31074;DHT22;17730;53.552;9.940;2022-08-02T04:53:12;12.90;99.90
31074;DHT22;17730;53.552;9.940;2022-08-02T04:55:37;12.90;99.90
31074;DHT22;17730;53.552;9.940;2022-08-02T04:58:03;12.80;99.90
31074;DHT22;17730;53.552;9.940;2022-08-02T05:00:29;12.80;99.90
31074;DHT22;17730;53.552;9.940;2022-08-02T05:02:58;12.70;99.90
31074;DHT22;17730;53.552;9.940;2022-08-02T05:05:25;12.70;99.90
31074;DHT22;17730;53.552;9.940;2022-08-02T05:07:50;12.70;99.90
31074;DHT22;17730;53.552;9.940;2022-08-02T05:10:16;12.90;99.90
31074;DHT22;17730;53.552;9.940;2022-08-02T05:12:42;13.10;99.90
31074;DHT22;17730;53.552;9.940;2022-08-02T05:15:10;13.30;99.90
31074;DHT22;17730;53.552;9.940;2022-08-02T05:17:36;13.40;99.90
31074;DHT22;17730;53.552;9.940;2022-08-02T05:20:03;13.60;99.90
31074;DHT22;17730;53.552;9.940;2022-08-02T05:22:29;13.80;99.90
31074;DHT22;17730;53.552;9.940;2022-08-02T05:24:54;13.90;99.90
31074;DHT22;17730;53.552;9.940;2022-08-02T05:27:20;14.00;99.90
31074;DHT22;17730;53.552;9.940;2022-08-02T05:29:46;14.20;99.90
31074;DHT22;17730;53.552;9.940;2022-08-02T05:32:11;14.30;99.90
31074;DHT22;17730;53.552;9.940;2022-08-02T05:34:37;14.40;99.90
31074;DHT22;17730;53.552;9.940;2022-08-02T05:37:02;14.40;99.90
31074;DHT22;17730;53.552;9.940;2022-08-02T05:39:28;14.50;99.90
31074;DHT22;17730;53.552;9.940;2022-08-02T05:41:54;14.60;99.90
31074;DHT22;17730;53.552;9.940;2022-08-02T05:44:21;14.70;99.90
31074;DHT22;17730;53.552;9.940;2022-08-02T05:46:47;14.80;99.90
31074;DHT22;17730;53.552;9.940;2022-08-02T05:49:12;14.90;99.90
31074;DHT22;17730;53.552;9.940;2022-08-02T05:54:39;15.10;99.90
31074;DHT22;17730;53.552;9.940;2022-08-02T05:57:19;15.20;99.90
31074;DHT22;17730;53.552;9.940;2022-08-02T06:02:29;15.40;99.90
31074;DHT22;17730;53.552;9.940;2022-08-02T06:05:10;15.40;99.90
31074;DHT22;17730;53.552;9.940;2022-08-02T06:07:36;15.50;99.90
31074;DHT22;17730;53.552;9.940;2022-08-02T06:10:11;15.50;99.90
31074;DHT22;17730;53.552;9.940;2022-08-02T06:15:12;15.70;99.90
31074;DHT22;17730;53.552;9.940;2022-08-02T06:17:39;15.70;99.90
31074;DHT22;17730;53.552;9.940;2022-08-02T06:20:06;15.80;99.90
31074;DHT22;17730;53.552;9.940;2022-08-02T06:22:40;15.90;99.90
31074;DHT22;17730;53.552;9.940;2022-08-02T06:25:09;16.00;99.90
31074;DHT22;17730;53.552;9.940;2022-08-02T06:27:36;16.10;99.90
31074;DHT22;17730;53.552;9.940;2022-08-02T06:30:03;16.20;99.90
31074;DHT22;17730;53.552;9.940;2022-08-02T06:32:31;16.30;99.90
31074;DHT22;17730;53.552;9.940;2022-08-02T06:34:56;16.20;99.90
31074;DHT22;17730;53.552;9.940;2022-08-02T06:37:37;16.30;99.90
31074;DHT22;17730;53.552;9.940;2022-08-02T06:43:19;16.40;99.90
31074;DHT22;17730;53.552;9.940;2022-08-02T06:45:46;16.40;99.90
31074;DHT22;17730;53.552;9.940;2022-08-02T06:48:12;16.50;99.90
31074;DHT22;17730;53.552;9.940;2022-08-02T06:50:37;16.60;99.90
31074;DHT22;17730;53.552;9.940;2022-08-02T06:53:05;16.70;99.90
31074;DHT22;17730;53.552;9.940;2022-08-02T06:55:30;16.80;99.90
31074;DHT22;17730;53.552;9.940;2022-08-02T06:57:57;17.00;99.90
31074;DHT22;17730;53.552;9.940;2022-08-02T07:00:23;17.20;99.90
31074;DHT22;17730;53.552;9.940;2022-08-02T07:02:49;17.40;99.90
31074;DHT22;17730;53.552;9.940;2022-08-02T07:05:21;17.40;99.90
31074;DHT22;17730;53.552;9.940;2022-08-02T07:07:46;17.60;99.90
31074;DHT22;17730;53.552;9.940;2022-08-02T07:10:13;17.70;99.90
31074;DHT22;17730;53.552;9.940;2022-08-02T07:12:39;17.80;99.90
31074;DHT22;17730;53.552;9.940;2022-08-02T07:15:07;18.00;99.90
31074;DHT22;17730;53.552;9.940;2022-08-02T07:17:34;18.20;99.90
31074;DHT22;17730;53.552;9.940;2022-08-02T07:20:01;18.30;99.90
31074;DHT22;17730;53.552;9.940;2022-08-02T07:22:27;18.30;99.90
31074;DHT22;17730;53.552;9.940;2022-08-02T07:24:54;18.30;99.90
31074;DHT22;17730;53.552;9.940;2022-08-02T07:27:20;18.20;99.90
31074;DHT22;17730;53.552;9.940;2022-08-02T07:29:46;18.30;99.90
31074;DHT22;17730;53.552;9.940;2022-08-02T07:32:11;18.30;99.90
31074;DHT22;17730;53.552;9.940;2022-08-02T07:34:37;18.30;99.90
31074;DHT22;17730;53.552;9.940;2022-08-02T07:37:03;18.30;99.90
31074;DHT22;17730;53.552;9.940;2022-08-02T07:39:28;18.40;99.90
31074;DHT22;17730;53.552;9.940;2022-08-02T07:41:54;18.50;99.90
31074;DHT22;17730;53.552;9.940;2022-08-02T07:44:19;18.50;99.90
31074;DHT22;17730;53.552;9.940;2022-08-02T07:46:46;18.70;99.90
31074;DHT22;17730;53.552;9.940;2022-08-02T07:49:12;18.90;99.90
31074;DHT22;17730;53.552;9.940;2022-08-02T07:51:44;19.00;99.90
31074;DHT22;17730;53.552;9.940;2022-08-02T07:54:10;19.10;99.90
31074;DHT22;17730;53.552;9.940;2022-08-02T07:56:35;19.20;99.90
31074;DHT22;17730;53.552;9.940;2022-08-02T07:59:02;19.30;99.90
31074;DHT22;17730;53.552;9.940;2022-08-02T08:01:28;19.30;99.90
31074;DHT22;17730;53.552;9.940;2022-08-02T08:03:54;19.30;99.90
31074;DHT22;17730;53.552;9.940;2022-08-02T08:06:19;19.40;99.90
31074;DHT22;17730;53.552;9.940;2022-08-02T08:08:45;19.40;99.90
31074;DHT22;17730;53.552;9.940;2022-08-02T08:11:10;19.60;99.90
31074;DHT22;17730;53.552;9.940;2022-08-02T08:13:36;19.70;99.90
31074;DHT22;17730;53.552;9.940;2022-08-02T08:16:01;19.80;99.90
31074;DHT22;17730;53.552;9.940;2022-08-02T08:18:28;19.60;99.90
31074;DHT22;17730;53.552;9.940;2022-08-02T08:20:53;19.60;99.90
31074;DHT22;17730;53.552;9.940;2022-08-02T08:23:19;19.60;99.90
31074;DHT22;17730;53.552;9.940;2022-08-02T08:25:45;19.80;99.90
31074;DHT22;17730;53.552;9.940;2022-08-02T08:28:10;20.00;99.90
31074;DHT22;17730;53.552;9.940;2022-08-02T08:35:28;20.20;99.90
31074;DHT22;17730;53.552;9.940;2022-08-02T08:37:54;20.60;99.90
31074;DHT22;17730;53.552;9.940;2022-08-02T08:40:19;20.60;99.90
31074;DHT22;17730;53.552;9.940;2022-08-02T08:42:45;20.60;99.90
31074;DHT22;17730;53.552;9.940;2022-08-02T08:45:11;20.50;99.50
31074;DHT22;17730;53.552;9.940;2022-08-02T08:47:41;20.60;99.90
31074;DHT22;17730;53.552;9.940;2022-08-02T08:50:09;20.70;99.50
31074;DHT22;17730;53.552;9.940;2022-08-02T08:52:46;21.00;99.40
31074;DHT22;17730;53.552;9.940;2022-08-02T09:32:23;21.30;98.80
31074;DHT22;17730;53.552;9.940;2022-08-02T09:34:51;22.60;96.10
31074;DHT22;17730;53.552;9.940;2022-08-02T09:37:29;22.60;95.90
31074;DHT22;17730;53.552;9.940;2022-08-02T09:39:57;22.90;95.80
31074;DHT22;17730;53.552;9.940;2022-08-02T09:42:25;22.90;95.60
31074;DHT22;17730;53.552;9.940;2022-08-02T10:19:31;23.00;95.20
31074;DHT22;17730;53.552;9.940;2022-08-02T10:22:04;23.50;91.60
31074;DHT22;17730;53.552;9.940;2022-08-02T10:24:32;23.40;91.80
31074;DHT22;17730;53.552;9.940;2022-08-02T10:27:00;23.30;91.70
31074;DHT22;17730;53.552;9.940;2022-08-02T10:29:34;23.20;91.80
31074;DHT22;17730;53.552;9.940;2022-08-02T10:32:05;23.40;91.80
31074;DHT22;17730;53.552;9.940;2022-08-02T10:34:36;23.50;91.50
31074;DHT22;17730;53.552;9.940;2022-08-02T10:37:05;23.60;91.30
31074;DHT22;17730;53.552;9.940;2022-08-02T10:39:42;23.70;91.00
31074;DHT22;17730;53.552;9.940;2022-08-02T10:42:08;23.90;90.80
31074;DHT22;17730;53.552;9.940;2022-08-02T10:44:35;24.00;90.30
31074;DHT22;17730;53.552;9.940;2022-08-02T10:49:53;24.20;89.00
31074;DHT22;17730;53.552;9.940;2022-08-02T10:52:23;24.20;88.20
31074;DHT22;17730;53.552;9.940;2022-08-02T10:54:56;24.20;87.90
31074;DHT22;17730;53.552;9.940;2022-08-02T10:57:27;24.30;87.90
31074;DHT22;17730;53.552;9.940;2022-08-02T10:59:59;24.40;87.10
31074;DHT22;17730;53.552;9.940;2022-08-02T11:02:43;24.40;87.60
31074;DHT22;17730;53.552;9.940;2022-08-02T11:05:18;24.40;87.20
31074;DHT22;17730;53.552;9.940;2022-08-02T11:07:44;24.50;85.40
31074;DHT22;17730;53.552;9.940;2022-08-02T11:15:23;24.70;84.80
31074;DHT22;17730;53.552;9.940;2022-08-02T11:17:54;24.70;84.00
31074;DHT22;17730;53.552;9.940;2022-08-02T11:20:21;24.80;82.90
31074;DHT22;17730;53.552;9.940;2022-08-02T11:22:48;24.70;80.10
31074;DHT22;17730;53.552;9.940;2022-08-02T11:27:47;24.80;79.50
31074;DHT22;17730;53.552;9.940;2022-08-02T11:30:14;24.80;79.60
31074;DHT22;17730;53.552;9.940;2022-08-02T11:32:40;24.90;78.20
31074;DHT22;17730;53.552;9.940;2022-08-02T11:35:06;24.90;77.00
31074;DHT22;17730;53.552;9.940;2022-08-02T11:37:37;25.10;78.20
31074;DHT22;17730;53.552;9.940;2022-08-02T11:40:05;25.20;78.20
31074;DHT22;17730;53.552;9.940;2022-08-02T11:42:42;25.30;78.00
31074;DHT22;17730;53.552;9.940;2022-08-02T11:45:12;25.20;75.20
31074;DHT22;17730;53.552;9.940;2022-08-02T11:47:52;25.30;75.70
31074;DHT22;17730;53.552;9.940;2022-08-02T11:50:20;25.50;75.80
31074;DHT22;17730;53.552;9.940;2022-08-02T11:52:49;25.70;76.10
31074;DHT22;17730;53.552;9.940;2022-08-02T11:55:14;25.80;74.90
31074;DHT22;17730;53.552;9.940;2022-08-02T11:57:40;26.00;75.30
31074;DHT22;17730;53.552;9.940;2022-08-02T12:00:16;26.00;75.70
31074;DHT22;17730;53.552;9.940;2022-08-02T12:02:46;26.00;74.60
31074;DHT22;17730;53.552;9.940;2022-08-02T12:05:17;26.00;73.90
31074;DHT22;17730;53.552;9.940;2022-08-02T12:07:44;26.00;72.60
31074;DHT22;17730;53.552;9.940;2022-08-02T12:10:13;26.10;73.30
31074;DHT22;17730;53.552;9.940;2022-08-02T12:12:53;26.10;72.90
31074;DHT22;17730;53.552;9.940;2022-08-02T12:15:36;26.10;73.50
31074;DHT22;17730;53.552;9.940;2022-08-02T12:18:08;26.30;73.40
31074;DHT22;17730;53.552;9.940;2022-08-02T12:20:52;26.50;74.00
31074;DHT22;17730;53.552;9.940;2022-08-02T12:23:18;26.70;72.20
31074;DHT22;17730;53.552;9.940;2022-08-02T12:25:44;26.70;72.50
31074;DHT22;17730;53.552;9.940;2022-08-02T12:28:15;26.80;72.40
31074;DHT22;17730;53.552;9.940;2022-08-02T12:30:56;26.90;71.50
31074;DHT22;17730;53.552;9.940;2022-08-02T12:33:24;26.70;70.10
31074;DHT22;17730;53.552;9.940;2022-08-02T12:35:50;26.80;69.00
31074;DHT22;17730;53.552;9.940;2022-08-02T12:38:16;26.80;69.50
31074;DHT22;17730;53.552;9.940;2022-08-02T12:40:42;26.80;69.40
31074;DHT22;17730;53.552;9.940;2022-08-02T12:43:17;26.70;69.90
31074;DHT22;17730;53.552;9.940;2022-08-02T12:45:47;26.80;70.00
31074;DHT22;17730;53.552;9.940;2022-08-02T12:48:13;27.00;69.00
31074;DHT22;17730;53.552;9.940;2022-08-02T12:50:39;27.20;68.30
31074;DHT22;17730;53.552;9.940;2022-08-02T12:53:10;27.40;68.00
31074;DHT22;17730;53.552;9.940;2022-08-02T12:55:49;27.50;67.10
31074;DHT22;17730;53.552;9.940;2022-08-02T12:58:15;27.60;66.90
31074;DHT22;17730;53.552;9.940;2022-08-02T13:00:41;27.70;66.30
31074;DHT22;17730;53.552;9.940;2022-08-02T13:03:08;27.40;65.30
31074;DHT22;17730;53.552;9.940;2022-08-02T13:05:35;27.20;66.20
31074;DHT22;17730;53.552;9.940;2022-08-02T13:08:02;27.20;67.00
31074;DHT22;17730;53.552;9.940;2022-08-02T13:10:28;27.30;66.00
31074;DHT22;17730;53.552;9.940;2022-08-02T13:12:54;27.50;64.50
31074;DHT22;17730;53.552;9.940;2022-08-02T13:15:20;27.50;64.20
31074;DHT22;17730;53.552;9.940;2022-08-02T13:17:46;27.60;64.50
31074;DHT22;17730;53.552;9.940;2022-08-02T13:20:12;27.60;63.90
31074;DHT22;17730;53.552;9.940;2022-08-02T13:22:41;27.60;63.00
31074;DHT22;17730;53.552;9.940;2022-08-02T13:25:07;27.50;63.20
31074;DHT22;17730;53.552;9.940;2022-08-02T13:27:34;27.70;61.60
31074;DHT22;17730;53.552;9.940;2022-08-02T13:30:01;27.90;61.30
31074;DHT22;17730;53.552;9.940;2022-08-02T13:32:27;28.00;60.80
31074;DHT22;17730;53.552;9.940;2022-08-02T13:34:55;28.10;60.70
31074;DHT22;17730;53.552;9.940;2022-08-02T13:37:21;28.20;61.70
31074;DHT22;17730;53.552;9.940;2022-08-02T13:39:47;28.30;61.90
31074;DHT22;17730;53.552;9.940;2022-08-02T13:42:13;28.40;62.00
31074;DHT22;17730;53.552;9.940;2022-08-02T13:44:39;28.10;61.70
31074;DHT22;17730;53.552;9.940;2022-08-02T13:47:04;28.20;62.50
31074;DHT22;17730;53.552;9.940;2022-08-02T13:49:30;28.30;62.50
31074;DHT22;17730;53.552;9.940;2022-08-02T13:51:56;28.60;62.30
31074;DHT22;17730;53.552;9.940;2022-08-02T13:54:22;28.80;61.90
31074;DHT22;17730;53.552;9.940;2022-08-02T13:56:47;29.00;61.20
31074;DHT22;17730;53.552;9.940;2022-08-02T13:59:13;29.00;60.80
31074;DHT22;17730;53.552;9.940;2022-08-02T14:01:39;29.00;61.30
31074;DHT22;17730;53.552;9.940;2022-08-02T14:04:04;29.10;61.40
31074;DHT22;17730;53.552;9.940;2022-08-02T14:06:30;29.20;61.20
31074;DHT22;17730;53.552;9.940;2022-08-02T14:08:56;29.30;61.50
31074;DHT22;17730;53.552;9.940;2022-08-02T14:11:21;29.20;61.10
31074;DHT22;17730;53.552;9.940;2022-08-02T14:13:47;29.00;61.20
31074;DHT22;17730;53.552;9.940;2022-08-02T14:16:13;28.90;61.90
31074;DHT22;17730;53.552;9.940;2022-08-02T14:18:38;28.70;63.10
31074;DHT22;17730;53.552;9.940;2022-08-02T14:21:04;28.80;64.10
31074;DHT22;17730;53.552;9.940;2022-08-02T14:23:30;28.80;63.80
31074;DHT22;17730;53.552;9.940;2022-08-02T14:25:57;29.00;64.00
31074;DHT22;17730;53.552;9.940;2022-08-02T14:28:22;29.20;63.50
31074;DHT22;17730;53.552;9.940;2022-08-02T14:30:48;29.30;63.60
31074;DHT22;17730;53.552;9.940;2022-08-02T14:33:14;29.50;63.30
31074;DHT22;17730;53.552;9.940;2022-08-02T14:35:40;29.60;63.20
31074;DHT22;17730;53.552;9.940;2022-08-02T14:38:06;29.70;63.10
31074;DHT22;17730;53.552;9.940;2022-08-02T14:40:32;29.70;63.00
31074;DHT22;17730;53.552;9.940;2022-08-02T14:42:59;29.70;63.10
31074;DHT22;17730;53.552;9.940;2022-08-02T14:45:25;29.60;63.50
31074;DHT22;17730;53.552;9.940;2022-08-02T14:47:53;29.40;63.80
31074;DHT22;17730;53.552;9.940;2022-08-02T14:50:19;29.30;63.90
31074;DHT22;17730;53.552;9.940;2022-08-02T14:52:45;29.30;64.40
31074;DHT22;17730;53.552;9.940;2022-08-02T14:55:12;29.10;64.50
31074;DHT22;17730;53.552;9.940;2022-08-02T14:57:38;28.90;64.90
31074;DHT22;17730;53.552;9.940;2022-08-02T15:00:04;28.60;65.80
31074;DHT22;17730;53.552;9.940;2022-08-02T15:02:31;28.70;65.80
31074;DHT22;17730;53.552;9.940;2022-08-02T15:04:56;28.70;65.90
31074;DHT22;17730;53.552;9.940;2022-08-02T15:07:22;28.70;66.60
31074;DHT22;17730;53.552;9.940;2022-08-02T15:09:47;28.80;66.80
31074;DHT22;17730;53.552;9.940;2022-08-02T15:12:14;28.80;67.00
31074;DHT22;17730;53.552;9.940;2022-08-02T15:14:40;28.70;67.50
31074;DHT22;17730;53.552;9.940;2022-08-02T15:17:07;28.70;67.90
31074;DHT22;17730;53.552;9.940;2022-08-02T15:19:35;28.70;68.10
31074;DHT22;17730;53.552;9.940;2022-08-02T15:22:01;28.70;68.20
31074;DHT22;17730;53.552;9.940;2022-08-02T15:24:26;28.80;68.30
31074;DHT22;17730;53.552;9.940;2022-08-02T15:26:53;28.90;68.80
31074;DHT22;17730;53.552;9.940;2022-08-02T15:29:19;29.00;68.90
31074;DHT22;17730;53.552;9.940;2022-08-02T15:31:45;28.90;69.20
31074;DHT22;17730;53.552;9.940;2022-08-02T15:34:11;28.80;69.70
31074;DHT22;17730;53.552;9.940;2022-08-02T15:36:37;28.70;70.00
31074;DHT22;17730;53.552;9.940;2022-08-02T15:39:03;28.60;70.40
31074;DHT22;17730;53.552;9.940;2022-08-02T15:41:29;28.50;71.10
31074;DHT22;17730;53.552;9.940;2022-08-02T15:43:55;28.60;71.80
31074;DHT22;17730;53.552;9.940;2022-08-02T15:46:20;28.60;72.20
31074;DHT22;17730;53.552;9.940;2022-08-02T15:48:52;28.60;72.10
31074;DHT22;17730;53.552;9.940;2022-08-02T15:51:18;28.70;72.10
31074;DHT22;17730;53.552;9.940;2022-08-02T15:53:44;28.70;71.80
31074;DHT22;17730;53.552;9.940;2022-08-02T15:56:10;28.70;71.60
31074;DHT22;17730;53.552;9.940;2022-08-02T15:58:35;28.60;72.10
31074;DHT22;17730;53.552;9.940;2022-08-02T16:01:01;28.50;72.80
31074;DHT22;17730;53.552;9.940;2022-08-02T16:03:27;28.40;73.10
31074;DHT22;17730;53.552;9.940;2022-08-02T16:05:53;28.40;73.80
31074;DHT22;17730;53.552;9.940;2022-08-02T16:08:19;28.40;73.90
31074;DHT22;17730;53.552;9.940;2022-08-02T16:10:58;28.40;73.90
31074;DHT22;17730;53.552;9.940;2022-08-02T16:13:33;28.40;74.20
31074;DHT22;17730;53.552;9.940;2022-08-02T16:16:14;28.40;74.40
31074;DHT22;17730;53.552;9.940;2022-08-02T16:18:40;28.30;74.80
31074;DHT22;17730;53.552;9.940;2022-08-02T16:21:05;28.20;75.30
31074;DHT22;17730;53.552;9.940;2022-08-02T16:23:31;28.20;75.80
31074;DHT22;17730;53.552;9.940;2022-08-02T16:25:57;28.10;76.40
31074;DHT22;17730;53.552;9.940;2022-08-02T16:28:22;28.00;77.20
31074;DHT22;17730;53.552;9.940;2022-08-02T16:30:48;27.90;78.20
31074;DHT22;17730;53.552;9.940;2022-08-02T16:33:14;27.90;79.20
31074;DHT22;17730;53.552;9.940;2022-08-02T16:35:39;27.80;80.10
31074;DHT22;17730;53.552;9.940;2022-08-02T16:38:06;27.80;80.70
31074;DHT22;17730;53.552;9.940;2022-08-02T16:40:32;27.80;81.10
31074;DHT22;17730;53.552;9.940;2022-08-02T16:43:01;27.90;81.60
31074;DHT22;17730;53.552;9.940;2022-08-02T16:45:30;27.80;82.10
31074;DHT22;17730;53.552;9.940;2022-08-02T16:47:56;27.80;82.90
31074;DHT22;17730;53.552;9.940;2022-08-02T16:50:21;27.70;84.00
31074;DHT22;17730;53.552;9.940;2022-08-02T16:52:49;27.50;85.00
31074;DHT22;17730;53.552;9.940;2022-08-02T16:55:23;27.30;86.70
31074;DHT22;17730;53.552;9.940;2022-08-02T16:57:56;27.20;88.90
31074;DHT22;17730;53.552;9.940;2022-08-02T17:00:23;27.10;90.00
31074;DHT22;17730;53.552;9.940;2022-08-02T17:02:49;27.00;90.50
31074;DHT22;17730;53.552;9.940;2022-08-02T17:05:14;26.90;91.00
31074;DHT22;17730;53.552;9.940;2022-08-02T17:07:41;26.80;91.60
31074;DHT22;17730;53.552;9.940;2022-08-02T17:10:07;26.80;91.90
31074;DHT22;17730;53.552;9.940;2022-08-02T17:12:33;26.70;92.00
31074;DHT22;17730;53.552;9.940;2022-08-02T17:15:00;26.70;92.10
31074;DHT22;17730;53.552;9.940;2022-08-02T17:17:25;26.60;92.10